Billings, MT

6:43 PM MDT on September 02, 2015 (GMT -0600)
South of Castle Rock Park | | Change Station
CLOSE
Current Station
Personal Weather Station
Location: Billings, MT
Elevation: 3297 ft
Nearby Weather Stations

Elev 3297 ft 45.82 °N, 108.50 °W | Updated 21 seconds ago

Partly Cloudy
Partly Cloudy
96.3 °F
Feels Like 92 °F
N
2.5
Wind Variable Wind from WSW
Gusts 4.7 mph

Today
High -- | Low -- °F
--% Chance of Precip.
Yesterday
High -- | Low -- °F
Precip. -- in
6:35 AM 7:50 PM
Waning Gibbous, 76% visible
Pressure 29.57 in
Visibility 10.0 miles
Clouds Few 12000 ft
Scattered Clouds 24000 ft
Heat Index 92 °F
Dew Point 40 °F
Humidity 15%
Rainfall 0.00 in
Snow Depth Not available.
UV 1 out of 12
Pollen 9.30 out of 12
Air Quality Not available.
Flu Activity Not available.
METAR KBIL 022353Z 24008KT 10SM FEW120 SCT240 34/M01 A2969 RMK AO2 SLP013 T03391006 10350 20328 56015
Pressure 29.57 in
Visibility 10.0 miles
Clouds Few 12000 ft
Scattered Clouds 24000 ft
Heat Index 92 °F
Dew Point 40 °F
Humidity 15%
Rainfall 0.00 in
Snow Depth Not available.
UV 1 out of 12
Pollen 9.30 out of 12
Air Quality Not available.
Flu Activity Not available.
METAR KBIL 022353Z 24008KT 10SM FEW120 SCT240 34/M01 A2969 RMK AO2 SLP013 T03391006 10350 20328 56015

10-Day Weather Forecast

×

Almanac

Astronomy

Sep. 02, 2015 Rise Set
Actual Time
Civil Twilight
Nautical Twilight
Astronomical Twilight
Moon
Length of Visible Light
Length of Day
Tomorrow will be .
, % of the Moon is Illuminated

Today's Extremes

State Highs State Lows

Community

WunderPhotos

Upload Photos

1,851,855 photos uploaded!

WunderBlogs® & News

Nearby

Air Quality

  Air Quality AQ Index Pollutant
Not available.

Snow Depth

Station Depth Elevation

Earthquake Activity

City Distance Mag. Time & Date
Minimum magnitude displayed is 2.5.

Coastal Water Temperatures

Place Temperature

Stations

Nearby Weather Stations

Station Location Temp. Windchill Dew Point Humidity Wind Precip. Elev Updated Type